createdAt,value
2018-05-07T00:03:30.219Z,2.47
2018-05-07T00:09:27.628Z,2.80
2018-05-07T00:12:09.576Z,2.70
2018-05-07T00:17:38.472Z,2.37
2018-05-07T00:20:09.518Z,2.73
2018-05-07T00:22:52.644Z,2.63
2018-05-07T00:25:28.489Z,2.80
2018-05-07T00:28:01.683Z,2.57
2018-05-07T00:36:17.076Z,2.80
2018-05-07T00:38:47.304Z,2.90
2018-05-07T00:41:15.174Z,3.00
2018-05-07T00:49:09.187Z,2.63
2018-05-07T00:51:38.691Z,2.43
2018-05-07T00:54:11.687Z,2.43
2018-05-07T00:57:00.413Z,3.17
2018-05-07T00:59:29.117Z,2.53
2018-05-07T01:02:04.254Z,2.57
2018-05-07T01:04:41.234Z,2.70
2018-05-07T01:07:10.847Z,2.63
2018-05-07T01:09:48.439Z,2.53
2018-05-07T01:12:17.141Z,2.47
2018-05-07T01:17:30.228Z,2.90
2018-05-07T01:20:05.364Z,2.40
2018-05-07T01:22:35.632Z,2.97
2018-05-07T01:25:04.731Z,2.80
2018-05-07T01:33:14.399Z,2.83
2018-05-07T01:35:44.624Z,2.70
2018-05-07T01:43:36.480Z,2.80
2018-05-07T01:46:07.559Z,3.47
2018-05-07T01:48:35.804Z,3.87
2018-05-07T01:57:22.572Z,2.60
2018-05-07T01:59:51.002Z,2.50
2018-05-07T02:02:34.368Z,2.53
2018-05-07T02:05:10.283Z,2.97
2018-05-07T02:07:42.661Z,3.83
2018-05-07T02:13:18.705Z,2.90
2018-05-07T02:19:00.105Z,2.67
2018-05-07T02:21:31.718Z,2.63
2018-05-07T02:24:05.160Z,2.37
2018-05-07T02:26:35.587Z,2.43
2018-05-07T02:29:11.386Z,2.80
2018-05-07T02:34:40.035Z,2.73
2018-05-07T02:43:54.477Z,3.23
2018-05-07T02:55:03.002Z,2.60
2018-05-07T02:57:39.496Z,2.73
2018-05-07T03:04:54.198Z,3.17
2018-05-07T03:07:21.891Z,2.50
2018-05-07T03:09:57.516Z,3.43
2018-05-07T03:12:41.661Z,2.60
2018-05-07T03:15:20.073Z,3.13
2018-05-07T03:17:57.868Z,2.70
2018-05-07T03:20:28.980Z,2.90
2018-05-07T03:23:00.013Z,2.80
2018-05-07T03:25:28.031Z,2.80
2018-05-07T03:27:57.177Z,2.37
2018-05-07T03:30:34.916Z,2.80
2018-05-07T03:33:05.361Z,2.93
2018-05-07T03:35:33.061Z,2.87
2018-05-07T03:38:02.551Z,2.40
2018-05-07T03:40:34.391Z,3.20
2018-05-07T03:43:15.426Z,2.60
2018-05-07T03:45:44.061Z,2.90
2018-05-07T03:48:21.764Z,2.60
2018-05-07T03:50:50.304Z,2.97
2018-05-07T03:53:29.778Z,3.27
2018-05-07T03:55:58.572Z,2.70
2018-05-07T04:04:16.223Z,3.00
2018-05-07T04:09:48.186Z,2.77
2018-05-07T04:12:36.632Z,2.90
2018-05-07T05:21:40.411Z,1.90
2018-05-07T06:14:24.388Z,4.13
2018-05-07T06:19:54.190Z,3.93
2018-05-07T06:38:11.200Z,1.93
2018-05-07T06:43:32.003Z,3.00
2018-05-07T06:45:59.458Z,2.57
2018-05-07T06:48:26.826Z,2.60
2018-05-07T06:50:54.246Z,3.17
2018-05-07T06:53:21.635Z,2.30
2018-05-07T06:55:49.019Z,1.73
2018-05-07T06:58:16.578Z,0.60
2018-05-07T07:00:44.069Z,3.10
2018-05-07T07:03:11.462Z,5.03
2018-05-07T07:05:38.985Z,4.47
2018-05-07T07:08:06.912Z,4.53
2018-05-07T07:10:34.907Z,0.93
2018-05-07T07:13:03.245Z,2.00
2018-05-07T07:15:30.627Z,2.53
2018-05-07T07:17:58.016Z,3.70
2018-05-07T07:20:27.725Z,3.90
2018-05-07T07:22:59.077Z,4.30
2018-05-07T07:25:36.976Z,4.43
2018-05-07T07:38:30.308Z,4.57
2018-05-07T07:41:14.153Z,4.57
2018-05-07T07:43:52.367Z,4.57
2018-05-07T07:49:13.270Z,4.80
2018-05-07T07:51:49.532Z,4.40
2018-05-07T08:38:42.265Z,4.00
2018-05-07T08:48:11.856Z,3.33
2018-05-07T08:53:58.490Z,4.80
2018-05-07T08:56:56.115Z,4.67
2018-05-07T09:00:37.925Z,3.47
2018-05-07T09:11:42.049Z,5.17
2018-05-07T09:14:13.665Z,3.53
2018-05-07T09:16:46.449Z,3.37
2018-05-07T09:19:33.049Z,2.70
2018-05-07T09:22:06.041Z,2.90
2018-05-07T09:24:50.249Z,2.30
2018-05-07T09:27:33.501Z,2.83
2018-05-07T09:30:03.323Z,2.73
2018-05-07T09:41:37.633Z,2.33
2018-05-07T09:44:06.035Z,3.63
2018-05-07T09:49:29.109Z,6.03
2018-05-07T09:52:09.558Z,2.53
2018-05-07T09:54:38.214Z,2.00
2018-05-07T10:00:11.266Z,2.10
2018-05-07T10:02:56.819Z,2.07
2018-05-07T10:43:54.415Z,1.53
2018-05-07T10:46:35.527Z,1.63
2018-05-07T10:52:26.223Z,2.03
2018-05-07T10:58:06.773Z,1.40
2018-05-07T11:00:54.717Z,7.33
2018-05-07T11:24:18.947Z,2.40
2018-05-07T11:26:51.156Z,1.30
2018-05-07T11:29:19.589Z,2.10
2018-05-07T11:31:53.811Z,3.00
2018-05-07T11:34:21.711Z,0.97
2018-05-07T11:36:50.068Z,1.20
2018-05-07T11:39:33.334Z,4.20
2018-05-07T11:44:35.378Z,0.90
2018-05-07T11:47:03.139Z,0.80
2018-05-07T11:49:30.630Z,1.10
2018-05-07T11:51:58.372Z,2.27
2018-05-07T11:54:26.144Z,3.40
2018-05-07T11:56:54.114Z,2.27
2018-05-07T11:59:22.708Z,0.70
2018-05-07T12:01:50.884Z,0.93
2018-05-07T12:04:20.195Z,0.97
2018-05-07T12:06:48.364Z,0.70
2018-05-07T12:09:16.753Z,0.90
2018-05-07T12:11:44.786Z,1.57
2018-05-07T12:14:12.491Z,2.33
2018-05-07T12:16:40.569Z,3.17
2018-05-07T12:19:08.439Z,19.93
2018-05-07T12:21:36.416Z,5.00
2018-05-07T12:24:04.491Z,0.80
2018-05-07T12:26:33.206Z,0.90
2018-05-07T12:29:01.203Z,1.07
2018-05-07T12:31:30.397Z,0.90
2018-05-07T12:34:16.959Z,0.83
2018-05-07T12:36:54.141Z,0.83
2018-05-07T12:39:23.384Z,0.80
2018-05-07T12:41:52.646Z,4.03
2018-05-07T12:44:20.475Z,0.80
2018-05-07T12:46:48.406Z,1.00
2018-05-07T12:49:16.199Z,0.90
2018-05-07T12:51:44.114Z,1.03
2018-05-07T12:54:12.314Z,0.70
2018-05-07T12:56:48.784Z,1.30
2018-05-07T12:59:20.029Z,1.00
2018-05-07T13:04:44.412Z,3.23
2018-05-07T13:07:12.259Z,1.80
2018-05-07T13:09:43.256Z,1.10
2018-05-07T13:12:11.111Z,0.80
2018-05-07T13:14:39.084Z,0.90
2018-05-07T13:17:13.788Z,1.53
2018-05-07T13:19:42.194Z,2.37
2018-05-07T13:22:13.241Z,2.67
2018-05-07T13:24:44.119Z,1.03
2018-05-07T13:27:19.011Z,2.73
2018-05-07T13:29:47.190Z,1.60
2018-05-07T13:32:15.394Z,2.53
2018-05-07T13:34:43.157Z,1.23
2018-05-07T13:37:11.365Z,5.57
2018-05-07T13:39:47.732Z,4.70
2018-05-07T13:42:36.441Z,1.13
2018-05-07T13:45:04.709Z,0.80
2018-05-07T13:47:32.516Z,0.90
2018-05-07T13:50:00.356Z,0.90
2018-05-07T13:52:29.195Z,0.60
2018-05-07T13:54:57.016Z,0.90
2018-05-07T13:57:26.527Z,1.00
2018-05-07T13:59:55.320Z,1.20
2018-05-07T14:02:23.904Z,4.30
2018-05-07T14:08:48.579Z,1.13
2018-05-07T14:20:14.620Z,1.07
2018-05-07T14:39:56.453Z,1.13
2018-05-07T14:56:27.672Z,1.67
2018-05-07T15:17:28.658Z,0.50
2018-05-07T15:19:56.125Z,0.63
2018-05-07T15:22:23.548Z,0.70
2018-05-07T15:24:50.990Z,0.53
2018-05-07T15:27:18.719Z,0.50
2018-05-07T15:29:46.277Z,0.47
2018-05-07T15:32:13.733Z,0.43
2018-05-07T15:34:41.785Z,0.40
2018-05-07T15:37:09.169Z,0.40
2018-05-07T15:39:36.613Z,0.40
2018-05-07T15:42:04.045Z,0.53
2018-05-07T15:44:31.563Z,0.30
2018-05-07T15:46:58.960Z,1.17
2018-05-07T15:49:26.572Z,0.30
2018-05-07T15:51:54.361Z,0.50
2018-05-07T15:54:21.771Z,0.47
2018-05-07T15:56:49.201Z,1.63
2018-05-07T15:59:16.643Z,5.00
2018-05-07T16:01:44.039Z,12.20
2018-05-07T16:04:11.499Z,21.20
2018-05-07T16:06:38.920Z,19.57
2018-05-07T16:09:06.756Z,19.03
2018-05-07T16:11:34.180Z,14.83
2018-05-07T16:14:01.593Z,18.30
2018-05-07T16:16:29.037Z,20.53
2018-05-07T16:18:56.435Z,16.67
2018-05-07T16:21:24.131Z,14.97
2018-05-07T16:23:52.079Z,8.10
2018-05-07T16:26:19.552Z,12.23
2018-05-07T16:28:47.002Z,14.20
2018-05-07T16:31:14.482Z,13.53
2018-05-07T16:33:41.844Z,21.70
2018-05-07T16:36:09.256Z,20.43
2018-05-07T16:38:37.463Z,14.67
2018-05-07T16:41:04.906Z,12.50
2018-05-07T16:43:32.311Z,10.77
2018-05-07T16:45:59.789Z,8.93
2018-05-07T16:48:27.241Z,11.40
2018-05-07T16:50:55.026Z,9.00
2018-05-07T16:53:22.427Z,8.87
2018-05-07T16:55:49.808Z,5.30
2018-05-07T16:58:17.226Z,4.80
2018-05-07T17:00:44.606Z,3.33
2018-05-07T17:03:11.995Z,5.60
2018-05-07T17:05:39.409Z,4.47
2018-05-07T17:08:06.874Z,9.83
2018-05-07T17:10:34.279Z,3.90
2018-05-07T17:13:01.766Z,3.17
2018-05-07T17:15:29.150Z,3.13
2018-05-07T17:17:56.542Z,3.57
2018-05-07T17:20:23.960Z,2.77
2018-05-07T17:22:51.489Z,2.77
2018-05-07T17:25:18.894Z,1.00
2018-05-07T17:27:46.387Z,1.30
2018-05-07T17:30:13.841Z,2.97
2018-05-07T17:32:41.231Z,2.20
2018-05-07T17:35:08.771Z,1.47
2018-05-07T17:37:36.234Z,1.43
2018-05-07T17:40:03.648Z,1.00
2018-05-07T17:42:31.090Z,1.83
2018-05-07T17:45:04.448Z,1.70
2018-05-07T17:47:37.734Z,1.57
2018-05-07T17:50:05.137Z,1.30
2018-05-07T17:52:32.520Z,1.20
2018-05-07T17:55:00.029Z,1.33
2018-05-07T17:57:27.492Z,1.20
2018-05-07T17:59:54.924Z,1.20
2018-05-07T18:02:22.419Z,1.40
2018-05-07T18:04:49.856Z,1.40
2018-05-07T18:07:17.558Z,1.30
2018-05-07T18:09:45.632Z,0.80
2018-05-07T18:12:13.049Z,0.97
2018-05-07T18:14:40.478Z,1.10
2018-05-07T18:17:07.861Z,0.90
2018-05-07T18:19:35.260Z,1.10
2018-05-07T18:22:02.786Z,1.07
2018-05-07T18:24:30.296Z,1.10
2018-05-07T18:26:57.789Z,1.23
2018-05-07T18:29:25.179Z,1.20
2018-05-07T18:31:53.287Z,1.30
2018-05-07T18:34:20.702Z,0.87
2018-05-07T18:36:48.250Z,1.20
2018-05-07T18:39:15.672Z,1.07
2018-05-07T18:41:43.098Z,0.97
2018-05-07T18:44:10.639Z,1.00
2018-05-07T18:46:38.566Z,0.90
2018-05-07T18:49:05.949Z,0.90
2018-05-07T18:51:33.329Z,1.03
2018-05-07T18:54:00.753Z,0.90
2018-05-07T18:56:28.170Z,1.07
2018-05-07T18:58:55.574Z,1.17
2018-05-07T19:01:23.087Z,0.77
2018-05-07T19:03:50.965Z,0.97
2018-05-07T19:06:18.417Z,1.60
2018-05-07T19:08:45.873Z,1.10
2018-05-07T19:11:13.257Z,1.20
2018-05-07T19:13:40.709Z,0.90
2018-05-07T19:16:08.165Z,1.00
2018-05-07T19:18:36.298Z,1.27
2018-05-07T19:21:03.705Z,0.90
2018-05-07T19:23:31.161Z,1.00
2018-05-07T19:25:58.578Z,0.87
2018-05-07T19:28:25.977Z,1.30
2018-05-07T19:30:53.410Z,1.40
2018-05-07T19:33:21.138Z,0.97
2018-05-07T19:35:48.521Z,1.20
2018-05-07T19:38:15.952Z,1.00
2018-05-07T19:40:55.013Z,0.90
2018-05-07T19:43:26.582Z,1.30
2018-05-07T20:23:20.253Z,1.67
2018-05-07T21:13:11.343Z,1.87
2018-05-07T21:48:16.762Z,1.83
2018-05-07T22:05:48.015Z,2.03
2018-05-07T22:11:24.181Z,2.63
2018-05-07T22:13:59.923Z,2.20
2018-05-07T22:16:30.171Z,2.37
2018-05-07T22:25:04.806Z,1.90
2018-05-07T22:36:27.576Z,2.17
2018-05-07T22:50:25.300Z,1.70
2018-05-07T23:10:02.516Z,2.33
2018-05-07T23:15:40.730Z,2.20
2018-05-07T23:18:22.878Z,1.70
2018-05-07T23:26:13.557Z,2.03
2018-05-07T23:28:43.272Z,2.13
2018-05-07T23:36:56.877Z,2.40
2018-05-07T23:39:25.621Z,2.30
2018-05-07T23:44:52.417Z,2.13
2018-05-07T23:50:08.606Z,2.27
2018-05-07T23:55:38.297Z,2.30
2018-05-07T23:58:15.406Z,2.53
